Time;durP1;ratioP1;P1;durP2;ratioP2;P2;SDS_P1;SDS_P2;PMS_P1;PMS_P2;Temp;Humidity;BMP_temperature;BMP_pressure;BME280_temperature;BME280_humidity;BME280_pressure;Samples;Min_cycle;Max_cycle;Signal;HPM_P1;HPM_P2
2023/11/29 00:02:24;;;;;;;6.05;5.03;;;2.90;90.30;;;;;;5132484;27;20102;-33
2023/11/29 00:04:50;;;;;;;5.47;4.72;;;2.90;90.20;;;;;;5132885;27;20022;-34
2023/11/29 00:07:16;;;;;;;7.22;5.30;;;2.90;90.30;;;;;;5132854;27;20023;-30
2023/11/29 00:09:41;;;;;;;9.20;6.50;;;2.90;90.30;;;;;;5132825;27;20072;-34
2023/11/29 00:12:07;;;;;;;8.93;6.25;;;2.90;90.30;;;;;;5132582;27;20018;-33
2023/11/29 00:14:32;;;;;;;9.65;6.80;;;2.90;90.40;;;;;;5132540;27;20038;-33
2023/11/29 00:16:58;;;;;;;7.60;5.70;;;2.90;90.40;;;;;;5132419;27;20044;-33
2023/11/29 00:19:24;;;;;;;9.70;6.82;;;2.90;90.40;;;;;;5132336;27;20023;-33
2023/11/29 00:21:49;;;;;;;8.95;7.28;;;3.00;90.40;;;;;;5132532;27;20011;-34
2023/11/29 00:24:15;;;;;;;9.40;7.00;;;3.00;90.40;;;;;;5132261;27;20075;-32
2023/11/29 00:26:40;;;;;;;7.47;6.32;;;3.00;90.40;;;;;;5132689;27;20026;-33
2023/11/29 00:29:06;;;;;;;8.57;7.07;;;3.00;90.40;;;;;;5132609;27;20366;-35
2023/11/29 00:31:32;;;;;;;8.82;7.05;;;3.10;90.50;;;;;;5132214;27;20070;-34
2023/11/29 00:33:57;;;;;;;8.52;6.90;;;3.10;90.50;;;;;;5132320;27;20100;-33
2023/11/29 00:36:24;;;;;;;9.18;6.90;;;3.10;90.50;;;;;;5132417;27;20020;-33
2023/11/29 00:38:49;;;;;;;9.80;7.03;;;3.10;90.50;;;;;;5132268;27;20029;-33
2023/11/29 00:41:15;;;;;;;8.35;5.88;;;3.10;90.50;;;;;;5132464;27;20015;-34
2023/11/29 00:43:40;;;;;;;7.70;5.80;;;3.10;90.50;;;;;;5130911;28;20443;-35
2023/11/29 00:46:06;;;;;;;9.95;6.75;;;3.20;90.50;;;;;;5132427;27;20383;-32
2023/11/29 00:48:31;;;;;;;7.65;6.07;;;3.10;90.50;;;;;;5132044;27;20023;-34
2023/11/29 00:50:57;;;;;;;9.32;6.38;;;3.20;90.50;;;;;;5132299;27;20027;-34
2023/11/29 00:53:23;;;;;;;6.70;5.28;;;3.20;90.50;;;;;;5132166;27;20028;-34
2023/11/29 00:55:49;;;;;;;8.88;6.20;;;3.20;90.50;;;;;;5132706;27;20096;-34
2023/11/29 00:58:15;;;;;;;7.25;5.63;;;3.30;90.60;;;;;;5131877;27;20458;-34
2023/11/29 01:00:40;;;;;;;8.15;5.35;;;3.30;90.50;;;;;;5132285;27;20482;-34
2023/11/29 01:03:06;;;;;;;6.93;5.32;;;3.30;90.50;;;;;;5132176;27;20016;-34
2023/11/29 01:05:31;;;;;;;7.82;5.43;;;3.30;90.50;;;;;;5132087;27;20108;-34
2023/11/29 01:07:57;;;;;;;6.68;5.30;;;3.30;90.50;;;;;;5131801;27;20041;-34
2023/11/29 01:10:23;;;;;;;8.15;5.50;;;3.30;90.50;;;;;;5132100;27;20031;-34
2023/11/29 01:12:48;;;;;;;8.48;5.93;;;3.30;90.50;;;;;;5132216;27;20027;-33
2023/11/29 01:15:14;;;;;;;7.00;5.22;;;3.20;90.60;;;;;;5131874;27;20019;-35
2023/11/29 01:17:40;;;;;;;7.30;5.68;;;3.20;90.60;;;;;;5131907;27;20015;-33
2023/11/29 01:20:06;;;;;;;6.63;5.65;;;3.20;90.60;;;;;;5131929;27;20019;-34
2023/11/29 01:22:33;;;;;;;6.15;5.53;;;3.20;90.70;;;;;;5131847;27;20472;-31
2023/11/29 01:24:58;;;;;;;7.50;5.40;;;3.20;90.70;;;;;;5132301;27;20034;-33
2023/11/29 01:27:25;;;;;;;7.43;5.50;;;3.20;90.70;;;;;;5132006;27;20024;-32
2023/11/29 01:29:50;;;;;;;6.80;5.88;;;3.20;90.70;;;;;;5131478;27;20072;-32
2023/11/29 01:32:16;;;;;;;8.98;6.22;;;3.20;90.70;;;;;;5132543;27;20023;-32
2023/11/29 01:34:43;;;;;;;7.25;6.47;;;3.30;90.70;;;;;;5135012;27;20022;-34
2023/11/29 01:37:08;;;;;;;8.18;6.97;;;3.30;90.70;;;;;;5135898;27;20019;-34
2023/11/29 01:39:34;;;;;;;8.30;6.80;;;3.30;90.70;;;;;;5135748;27;20479;-33
2023/11/29 01:41:59;;;;;;;8.02;6.95;;;3.30;90.80;;;;;;5135515;27;20019;-35
2023/11/29 01:44:25;;;;;;;7.43;6.18;;;3.30;90.70;;;;;;5135220;27;20034;-33
2023/11/29 01:46:51;;;;;;;9.00;7.28;;;3.30;90.70;;;;;;5135517;27;20027;-32
2023/11/29 01:49:19;;;;;;;8.55;7.43;;;3.40;90.70;;;;;;5134791;27;20374;-33
2023/11/29 01:51:46;;;;;;;8.60;7.35;;;3.40;90.70;;;;;;5135183;27;20029;-32
2023/11/29 01:54:12;;;;;;;8.63;6.80;;;3.40;90.70;;;;;;5135036;27;20027;-32
2023/11/29 01:56:39;;;;;;;8.00;6.95;;;3.30;90.70;;;;;;5135299;27;20471;-33
2023/11/29 01:59:04;;;;;;;7.78;6.15;;;3.30;90.70;;;;;;5133356;27;20027;-32
2023/11/29 02:01:31;;;;;;;8.27;6.45;;;3.30;90.70;;;;;;5134659;27;20011;-33
2023/11/29 02:03:57;;;;;;;7.32;5.55;;;3.30;90.70;;;;;;5134381;27;20019;-33
2023/11/29 02:06:23;;;;;;;6.18;5.22;;;3.30;90.70;;;;;;5135036;27;20019;-33
2023/11/29 02:08:49;;;;;;;6.57;4.97;;;3.30;90.70;;;;;;5135060;27;20467;-33
2023/11/29 02:11:17;;;;;;;5.65;4.30;;;3.40;90.80;;;;;;5134896;27;20023;-33
2023/11/29 02:13:43;;;;;;;5.57;4.45;;;3.40;90.80;;;;;;5134869;27;20049;-33
2023/11/29 02:16:09;;;;;;;4.57;3.78;;;3.40;90.80;;;;;;5134906;27;20035;-36
2023/11/29 02:18:34;;;;;;;5.25;4.50;;;3.40;90.80;;;;;;5134340;27;20024;-33
2023/11/29 02:21:00;;;;;;;5.25;4.30;;;3.50;90.80;;;;;;5134671;27;20016;-33
2023/11/29 02:23:53;;;;;;;5.03;4.32;;;3.40;90.70;;;;;;5133334;27;20011;-33
2023/11/29 02:26:19;;;;;;;5.60;4.45;;;3.40;90.80;;;;;;5134609;27;20056;-33
2023/11/29 02:28:45;;;;;;;5.10;3.90;;;3.40;90.80;;;;;;5134727;27;20027;-32
2023/11/29 02:31:10;;;;;;;4.50;4.07;;;3.30;90.80;;;;;;5134545;27;20059;-33
2023/11/29 02:33:36;;;;;;;5.13;4.50;;;3.30;90.80;;;;;;5134323;27;20027;-32
2023/11/29 02:36:01;;;;;;;5.20;4.50;;;3.40;90.90;;;;;;5134513;27;20467;-32
2023/11/29 02:38:27;;;;;;;5.40;4.55;;;3.40;90.90;;;;;;5134143;27;20488;-32
2023/11/29 02:40:52;;;;;;;5.75;4.45;;;3.40;90.90;;;;;;5134433;27;20023;-32
2023/11/29 02:43:18;;;;;;;6.75;5.10;;;3.40;90.90;;;;;;5134359;27;20020;-32
2023/11/29 02:45:44;;;;;;;4.38;3.92;;;3.40;90.90;;;;;;5133023;27;20027;-32
2023/11/29 02:48:09;;;;;;;6.55;4.60;;;3.40;90.90;;;;;;5133914;27;20019;-32
2023/11/29 02:50:35;;;;;;;7.10;4.80;;;3.40;90.90;;;;;;5133913;27;20030;-31
2023/11/29 02:53:00;;;;;;;4.72;4.20;;;3.40;90.90;;;;;;5133083;27;20064;-32
2023/11/29 02:55:26;;;;;;;5.18;3.88;;;3.40;91.30;;;;;;5133917;27;20367;-31
2023/11/29 02:57:51;;;;;;;4.55;4.07;;;3.40;91.00;;;;;;5134040;27;20588;-32
2023/11/29 03:00:17;;;;;;;6.20;4.53;;;3.40;91.00;;;;;;5133688;27;20467;-32
2023/11/29 03:02:43;;;;;;;6.38;4.75;;;3.40;91.00;;;;;;5134314;27;20037;-32
2023/11/29 03:05:08;;;;;;;5.30;4.78;;;3.40;91.00;;;;;;5133601;27;20445;-35
2023/11/29 03:07:34;;;;;;;8.02;5.57;;;3.30;91.00;;;;;;5133865;27;20042;-32
2023/11/29 03:09:59;;;;;;;5.88;5.00;;;3.30;91.00;;;;;;5133825;27;20052;-32
2023/11/29 03:12:25;;;;;;;7.03;5.35;;;3.30;91.00;;;;;;5133698;27;20031;-31
2023/11/29 03:14:50;;;;;;;6.45;5.28;;;3.30;91.00;;;;;;5133317;27;20031;-34
2023/11/29 03:17:16;;;;;;;7.70;6.25;;;3.40;91.10;;;;;;5133537;27;20030;-31
2023/11/29 03:19:42;;;;;;;9.27;6.40;;;3.40;91.10;;;;;;5133358;27;20023;-33
2023/11/29 03:22:07;;;;;;;9.07;7.40;;;3.30;91.00;;;;;;5133532;27;20015;-33
2023/11/29 03:24:33;;;;;;;7.70;6.53;;;3.40;91.00;;;;;;5133381;27;20023;-33
2023/11/29 03:26:58;;;;;;;7.65;6.50;;;3.30;91.10;;;;;;5132209;27;20526;-33
2023/11/29 03:29:24;;;;;;;7.82;6.22;;;3.30;91.40;;;;;;5133377;27;20027;-33
2023/11/29 03:31:50;;;;;;;9.27;7.25;;;3.30;91.10;;;;;;5133158;27;20559;-33
2023/11/29 03:34:15;;;;;;;7.93;6.57;;;3.30;91.10;;;;;;5133297;27;20103;-32
2023/11/29 03:36:42;;;;;;;8.65;6.72;;;3.30;91.10;;;;;;5133656;27;20534;-33
2023/11/29 03:39:09;;;;;;;7.75;6.68;;;3.30;91.20;;;;;;5132812;27;20061;-32
2023/11/29 03:41:35;;;;;;;8.15;6.78;;;3.30;91.20;;;;;;5133270;27;20076;-32
2023/11/29 03:44:00;;;;;;;8.85;7.95;;;3.30;91.20;;;;;;5133009;27;20027;-33
2023/11/29 03:46:26;;;;;;;8.70;7.43;;;3.30;91.20;;;;;;5133152;27;20030;-33
2023/11/29 03:48:51;;;;;;;7.80;6.75;;;3.30;91.20;;;;;;5132648;27;20023;-32
2023/11/29 03:51:17;;;;;;;10.05;8.38;;;3.30;91.20;;;;;;5133057;27;20551;-32
2023/11/29 03:53:43;;;;;;;9.80;8.05;;;3.30;91.20;;;;;;5132869;27;20042;-32
2023/11/29 03:56:08;;;;;;;9.50;7.80;;;3.30;91.20;;;;;;5132879;27;20071;-33
2023/11/29 03:58:34;;;;;;;10.75;8.55;;;3.20;91.20;;;;;;5132917;27;20115;-32
2023/11/29 04:01:02;;;;;;;11.05;8.95;;;3.20;91.30;;;;;;5132962;27;20015;-33
2023/11/29 04:03:27;;;;;;;10.63;9.07;;;3.20;91.30;;;;;;5132672;27;20165;-32
2023/11/29 04:05:53;;;;;;;10.75;8.20;;;3.10;91.30;;;;;;5132846;27;20054;-33
2023/11/29 04:08:18;;;;;;;11.55;8.77;;;3.10;91.40;;;;;;5132722;27;20027;-31
2023/11/29 04:10:44;;;;;;;13.27;9.10;;;3.10;91.40;;;;;;5132743;27;20540;-32
2023/11/29 04:13:09;;;;;;;12.55;8.40;;;3.10;91.50;;;;;;5132635;27;20474;-32
2023/11/29 04:15:35;;;;;;;13.23;9.25;;;3.10;91.50;;;;;;5132543;27;20100;-32
2023/11/29 04:18:00;;;;;;;9.52;7.80;;;3.10;91.50;;;;;;5132634;27;20030;-33
2023/11/29 04:20:26;;;;;;;9.48;7.57;;;3.10;91.50;;;;;;5132715;27;20377;-31
2023/11/29 04:22:52;;;;;;;9.30;7.60;;;3.10;91.60;;;;;;5132789;27;20461;-32
2023/11/29 04:25:19;;;;;;;8.35;7.38;;;3.10;91.60;;;;;;5132768;27;20379;-32
2023/11/29 04:27:44;;;;;;;10.95;7.32;;;3.10;91.70;;;;;;5132634;27;20023;-33
2023/11/29 04:30:10;;;;;;;9.43;7.32;;;3.10;91.60;;;;;;5132449;27;20035;-31
2023/11/29 04:32:35;;;;;;;8.90;7.28;;;3.20;91.60;;;;;;5132387;27;20027;-32
2023/11/29 04:35:01;;;;;;;10.30;7.65;;;3.20;91.70;;;;;;5132653;27;20355;-32
2023/11/29 04:37:26;;;;;;;7.85;6.15;;;3.20;91.60;;;;;;5132593;27;20019;-31
2023/11/29 04:39:52;;;;;;;9.90;7.43;;;3.20;91.60;;;;;;5132123;27;20077;-32
2023/11/29 04:42:18;;;;;;;6.78;6.07;;;3.20;91.60;;;;;;5132323;27;20012;-32
2023/11/29 04:44:43;;;;;;;6.88;5.88;;;3.20;91.70;;;;;;5132273;27;20019;-32
2023/11/29 04:47:09;;;;;;;11.85;6.55;;;3.30;91.70;;;;;;5132662;27;20420;-33
2023/11/29 04:49:34;;;;;;;7.50;6.70;;;3.30;91.70;;;;;;5131975;27;20102;-32
2023/11/29 04:52:00;;;;;;;9.85;6.90;;;3.30;91.70;;;;;;5132416;27;20019;-33
2023/11/29 04:54:25;;;;;;;9.50;7.15;;;3.30;91.70;;;;;;5132100;27;20028;-33
2023/11/29 04:56:51;;;;;;;9.55;6.40;;;3.30;91.70;;;;;;5132181;27;20019;-39
2023/11/29 04:59:17;;;;;;;7.72;6.03;;;3.30;91.70;;;;;;5131929;27;20091;-33
2023/11/29 05:01:42;;;;;;;7.50;6.55;;;3.30;91.70;;;;;;5132460;27;20068;-33
2023/11/29 05:04:08;;;;;;;9.55;6.40;;;3.40;91.70;;;;;;5132038;27;20042;-35
2023/11/29 05:06:33;;;;;;;7.38;5.97;;;3.40;91.70;;;;;;5132504;27;20545;-43
2023/11/29 05:08:59;;;;;;;8.50;6.03;;;3.40;91.70;;;;;;5134657;27;20046;-34
2023/11/29 05:11:25;;;;;;;11.50;6.45;;;3.30;91.70;;;;;;5136078;27;20019;-35
2023/11/29 05:13:50;;;;;;;9.60;5.70;;;3.30;91.80;;;;;;5135835;27;20020;-33
2023/11/29 05:16:16;;;;;;;10.63;5.88;;;3.30;91.80;;;;;;5135859;27;20079;-33
2023/11/29 05:18:41;;;;;;;12.15;5.40;;;3.30;91.80;;;;;;5135449;27;20047;-32
2023/11/29 05:21:07;;;;;;;6.22;5.50;;;3.30;91.90;;;;;;5135941;27;20075;-31
2023/11/29 05:23:33;;;;;;;9.07;4.95;;;3.40;91.80;;;;;;5135779;27;20476;-32
2023/11/29 05:25:58;;;;;;;8.57;5.20;;;3.40;91.80;;;;;;5135607;27;20025;-33
2023/11/29 05:28:25;;;;;;;6.97;5.15;;;3.40;91.80;;;;;;5135976;27;20098;-32
2023/11/29 05:30:52;;;;;;;8.38;5.63;;;3.40;91.90;;;;;;5135655;27;20537;-33
2023/11/29 05:33:18;;;;;;;8.18;5.47;;;3.40;91.80;;;;;;5135620;27;20015;-32
2023/11/29 05:35:45;;;;;;;8.18;5.43;;;3.40;91.90;;;;;;5135217;27;20019;-33
2023/11/29 05:38:10;;;;;;;8.25;5.65;;;3.40;91.90;;;;;;5135499;27;20047;-34
2023/11/29 05:40:36;;;;;;;8.45;6.50;;;3.50;91.90;;;;;;5135320;27;20049;-32
2023/11/29 05:43:02;;;;;;;6.28;4.85;;;3.50;91.90;;;;;;5135476;27;20015;-33
2023/11/29 05:45:27;;;;;;;6.40;4.80;;;3.50;91.80;;;;;;5135130;27;20068;-32
2023/11/29 05:47:53;;;;;;;6.65;4.88;;;3.50;91.80;;;;;;5135089;27;20110;-33
2023/11/29 05:50:19;;;;;;;5.88;4.57;;;3.50;91.80;;;;;;5135104;27;20030;-32
2023/11/29 05:52:45;;;;;;;5.55;4.50;;;3.60;91.80;;;;;;5135296;27;20026;-33
2023/11/29 05:55:11;;;;;;;6.30;4.55;;;3.60;91.80;;;;;;5135049;27;20031;-33
2023/11/29 05:57:37;;;;;;;6.22;4.60;;;3.60;91.80;;;;;;5135993;27;20015;-33
2023/11/29 06:00:11;;;;;;;6.82;4.78;;;3.60;91.80;;;;;;5134881;27;20027;-33
2023/11/29 06:02:37;;;;;;;;;;;3.60;91.80;;;;;;5135511;27;20012;-33
2023/11/29 06:05:04;;;;;;;5.75;4.68;;;3.60;91.80;;;;;;5134690;27;19907;-32
2023/11/29 06:07:36;;;;;;;10.98;5.60;;;3.60;91.80;;;;;;5135011;27;20497;-33
2023/11/29 06:10:04;;;;;;;6.75;5.32;;;3.60;91.80;;;;;;5134587;27;20015;-33
2023/11/29 06:12:31;;;;;;;8.38;5.47;;;3.60;91.80;;;;;;5134855;27;20019;-33
2023/11/29 06:14:56;;;;;;;9.52;6.03;;;3.60;91.80;;;;;;5134514;27;20015;-32
2023/11/29 06:17:23;;;;;;;7.75;5.53;;;3.60;91.80;;;;;;5133408;27;20492;-32
2023/11/29 06:19:49;;;;;;;6.25;5.30;;;3.60;91.80;;;;;;5134757;27;20454;-32
2023/11/29 06:22:15;;;;;;;6.90;5.15;;;3.60;91.80;;;;;;5134726;27;20382;-32
2023/11/29 06:24:41;;;;;;;8.23;5.28;;;3.60;91.80;;;;;;5134770;27;20092;-33
2023/11/29 06:27:06;;;;;;;6.03;4.85;;;3.60;91.80;;;;;;5134909;27;20477;-32
2023/11/29 06:29:32;;;;;;;7.75;5.70;;;3.60;91.90;;;;;;5133165;27;20027;-33
2023/11/29 06:31:57;;;;;;;6.35;5.07;;;3.60;91.90;;;;;;5134284;27;20043;-32
2023/11/29 06:34:23;;;;;;;7.57;5.00;;;3.60;91.80;;;;;;5134766;27;20019;-32
2023/11/29 06:36:49;;;;;;;9.13;4.50;;;3.70;91.90;;;;;;5134302;27;20394;-33
2023/11/29 06:39:17;;;;;;;6.07;4.30;;;3.60;91.90;;;;;;5134108;27;20026;-34
2023/11/29 06:41:45;;;;;;;7.72;3.75;;;3.70;91.90;;;;;;5134567;27;20015;-33
2023/11/29 06:44:11;;;;;;;3.90;3.10;;;3.70;91.90;;;;;;5134416;27;20518;-33
2023/11/29 06:46:39;;;;;;;5.25;3.15;;;3.70;91.90;;;;;;5134302;27;20043;-33
2023/11/29 06:49:05;;;;;;;5.15;2.75;;;3.70;91.90;;;;;;5133913;27;20040;-32
2023/11/29 06:51:31;;;;;;;4.97;2.47;;;3.70;91.90;;;;;;5134156;27;20426;-32
2023/11/29 06:53:57;;;;;;;3.05;2.00;;;3.70;91.90;;;;;;5134067;27;20016;-32
2023/11/29 06:56:23;;;;;;;3.45;1.55;;;3.70;91.90;;;;;;5133856;27;20027;-34
2023/11/29 06:58:49;;;;;;;4.35;1.65;;;3.80;91.90;;;;;;5134064;27;20020;-32
2023/11/29 07:01:15;;;;;;;3.17;1.38;;;3.80;91.90;;;;;;5133739;27;20137;-32
2023/11/29 07:03:41;;;;;;;3.58;1.15;;;3.80;91.90;;;;;;5133893;27;20068;-33
2023/11/29 07:06:07;;;;;;;2.53;1.00;;;3.90;91.90;;;;;;5133478;27;20106;-32
2023/11/29 07:08:33;;;;;;;2.83;1.20;;;3.80;91.80;;;;;;5115275;27;20087;-33
2023/11/29 07:10:59;;;;;;;2.38;1.20;;;3.80;91.80;;;;;;5134200;27;20019;-33
2023/11/29 07:13:25;;;;;;;3.38;1.10;;;3.70;91.80;;;;;;5133934;27;20027;-32
2023/11/29 07:15:56;;;;;;;7.57;1.00;;;3.70;91.90;;;;;;5133571;27;20479;-32
2023/11/29 07:18:23;;;;;;;1.60;1.00;;;3.70;92.20;;;;;;5133654;27;20054;-33
2023/11/29 07:20:49;;;;;;;2.25;0.98;;;3.70;91.90;;;;;;5133498;27;20081;-33
2023/11/29 07:23:14;;;;;;;3.47;1.10;;;3.80;91.90;;;;;;5133854;27;20063;-33
2023/11/29 07:25:40;;;;;;;2.58;0.95;;;3.80;91.90;;;;;;5133576;27;20027;-34
2023/11/29 07:28:05;;;;;;;5.15;1.13;;;3.80;91.90;;;;;;5133210;27;20020;-32
2023/11/29 07:30:32;;;;;;;1.95;1.15;;;3.90;91.90;;;;;;5132523;27;20043;-32
2023/11/29 07:32:57;;;;;;;4.47;1.15;;;3.90;91.90;;;;;;5133584;27;20420;-33
2023/11/29 07:35:23;;;;;;;5.53;1.30;;;3.90;91.80;;;;;;5133292;27;20075;-32
2023/11/29 07:37:48;;;;;;;3.25;1.40;;;3.90;91.80;;;;;;5133448;27;20022;-32
2023/11/29 07:40:14;;;;;;;3.58;1.20;;;3.90;91.80;;;;;;5133094;27;20030;-31
2023/11/29 07:42:40;;;;;;;2.00;1.00;;;3.90;91.80;;;;;;5133462;27;20028;-32
2023/11/29 07:45:06;;;;;;;4.28;0.90;;;3.90;91.80;;;;;;5133192;27;20379;-33
2023/11/29 07:47:32;;;;;;;1.52;0.90;;;3.90;91.80;;;;;;5133177;27;20037;-33
2023/11/29 07:49:57;;;;;;;3.83;1.30;;;3.80;91.80;;;;;;5132544;27;20094;-33
2023/11/29 07:52:23;;;;;;;2.75;1.23;;;3.80;91.90;;;;;;5132948;27;20102;-32
2023/11/29 07:54:49;;;;;;;1.20;0.90;;;3.80;91.90;;;;;;5133442;27;20011;-33
2023/11/29 07:57:15;;;;;;;1.55;1.00;;;3.70;91.90;;;;;;5133021;27;20050;-32
2023/11/29 07:59:41;;;;;;;1.70;1.00;;;3.70;92.20;;;;;;5132947;27;20018;-33
2023/11/29 08:02:07;;;;;;;4.38;1.20;;;3.80;92.00;;;;;;5133181;27;20015;-33
2023/11/29 08:04:33;;;;;;;3.65;1.15;;;3.70;91.90;;;;;;5133043;27;20047;-32
2023/11/29 08:06:59;;;;;;;3.08;0.90;;;3.80;92.00;;;;;;5133061;27;20058;-33
2023/11/29 08:09:25;;;;;;;5.07;1.10;;;3.80;92.00;;;;;;5132581;27;20463;-32
2023/11/29 08:11:50;;;;;;;2.63;1.10;;;3.90;92.00;;;;;;5132998;27;20016;-33
2023/11/29 08:14:16;;;;;;;1.58;1.38;;;4.00;92.00;;;;;;5133002;27;20080;-33
2023/11/29 08:16:42;;;;;;;1.40;1.08;;;4.00;92.00;;;;;;5132774;27;20015;-33
2023/11/29 08:19:08;;;;;;;1.92;0.80;;;4.10;92.00;;;;;;5132395;27;20543;-32
2023/11/29 08:21:34;;;;;;;4.43;1.38;;;4.30;91.90;;;;;;5132694;27;20083;-32
2023/11/29 08:23:59;;;;;;;2.30;1.33;;;4.30;91.70;;;;;;5132865;27;20038;-35
2023/11/29 08:26:25;;;;;;;2.70;1.38;;;4.40;91.60;;;;;;5131206;27;20030;-34
2023/11/29 08:28:51;;;;;;;3.53;1.38;;;4.40;91.80;;;;;;5132463;27;20028;-34
2023/11/29 08:31:16;;;;;;;1.60;1.20;;;4.30;91.50;;;;;;5132412;27;20039;-32
2023/11/29 08:33:42;;;;;;;2.92;1.15;;;4.30;91.50;;;;;;5132461;27;20045;-34
2023/11/29 08:36:10;;;;;;;3.17;1.50;;;4.20;91.50;;;;;;5131019;28;20531;-32
2023/11/29 08:38:36;;;;;;;2.08;1.25;;;4.20;91.60;;;;;;5132471;27;20011;-33
2023/11/29 08:41:02;;;;;;;4.25;1.42;;;4.10;91.60;;;;;;5132753;27;20371;-35
2023/11/29 08:43:28;;;;;;;5.35;1.48;;;4.10;91.60;;;;;;5133953;27;20551;-32
2023/11/29 08:45:53;;;;;;;4.35;1.52;;;4.10;91.60;;;;;;5136499;27;20031;-32
2023/11/29 08:48:19;;;;;;;2.90;2.00;;;4.10;91.60;;;;;;5136324;27;20023;-32
2023/11/29 08:50:44;;;;;;;2.30;1.67;;;4.00;91.60;;;;;;5134982;27;20429;-33
2023/11/29 08:53:10;;;;;;;2.55;1.50;;;4.00;91.70;;;;;;5136592;27;20506;-32
2023/11/29 08:55:36;;;;;;;1.48;1.38;;;4.00;91.70;;;;;;5136279;27;20024;-32
2023/11/29 08:58:02;;;;;;;5.07;1.92;;;4.00;91.70;;;;;;5136376;27;20011;-38
2023/11/29 09:00:27;;;;;;;4.10;1.63;;;4.00;91.70;;;;;;5136406;27;20015;-32
2023/11/29 09:02:55;;;;;;;4.03;2.20;;;4.00;91.70;;;;;;5136516;27;20030;-33
2023/11/29 09:05:22;;;;;;;4.22;2.00;;;4.00;91.70;;;;;;5136221;27;20527;-32
2023/11/29 09:07:48;;;;;;;3.78;2.03;;;4.00;91.70;;;;;;5136083;27;20027;-32
2023/11/29 09:10:14;;;;;;;5.20;2.45;;;4.10;91.70;;;;;;5136017;27;20034;-32
2023/11/29 09:12:40;;;;;;;5.35;2.00;;;4.10;91.70;;;;;;5136128;27;20026;-33
2023/11/29 09:15:06;;;;;;;3.35;2.08;;;4.20;91.70;;;;;;5135717;27;20053;-31
2023/11/29 09:17:32;;;;;;;4.22;1.88;;;4.20;91.60;;;;;;5136127;27;20026;-36
2023/11/29 09:19:58;;;;;;;4.93;2.40;;;4.20;91.50;;;;;;5135810;27;20408;-32
2023/11/29 09:22:23;;;;;;;3.72;2.22;;;4.30;91.50;;;;;;5136105;27;20097;-33
2023/11/29 09:24:50;;;;;;;5.35;2.30;;;4.30;91.50;;;;;;5135869;27;20463;-32
2023/11/29 09:27:16;;;;;;;4.82;2.03;;;4.30;91.40;;;;;;5136179;27;20101;-32
2023/11/29 09:29:42;;;;;;;7.38;2.25;;;4.40;91.40;;;;;;5135560;27;20502;-32
2023/11/29 09:32:08;;;;;;;4.20;2.10;;;4.40;91.30;;;;;;5135692;27;20020;-33
2023/11/29 09:34:34;;;;;;;3.63;1.98;;;4.40;91.30;;;;;;5135983;27;20512;-32
2023/11/29 09:37:00;;;;;;;6.25;2.30;;;4.50;91.30;;;;;;5135188;27;20058;-32
2023/11/29 09:39:29;;;;;;;3.90;1.98;;;4.50;91.20;;;;;;5135610;27;20384;-32
2023/11/29 09:42:04;;;;;;;5.13;2.33;;;4.60;91.20;;;;;;5135468;27;20503;-33
2023/11/29 09:44:30;;;;;;;4.70;2.22;;;4.70;91.20;;;;;;5135507;27;20007;-30
2023/11/29 09:46:57;;;;;;;4.68;1.88;;;4.70;91.10;;;;;;5135697;27;20748;-33
2023/11/29 09:49:23;;;;;;;3.95;2.30;;;4.70;91.00;;;;;;5135056;27;20052;-32
2023/11/29 09:51:49;;;;;;;3.22;1.73;;;4.80;91.00;;;;;;5135131;27;20106;-31
2023/11/29 09:54:14;;;;;;;3.45;1.83;;;4.90;90.90;;;;;;5134686;27;20134;-32
2023/11/29 09:56:41;;;;;;;4.63;2.10;;;4.90;90.90;;;;;;5134912;27;20020;-32
2023/11/29 09:59:07;;;;;;;2.42;1.70;;;4.90;90.80;;;;;;5135458;27;20030;-32
2023/11/29 10:01:47;;;;;;;4.13;2.05;;;4.90;90.70;;;;;;5134781;27;20020;-33
2023/11/29 10:04:14;;;;;;;4.43;1.90;;;4.80;90.50;;;;;;5135464;27;20022;-33
2023/11/29 10:06:40;;;;;;;3.70;1.98;;;4.80;90.50;;;;;;5134770;27;20122;-32
2023/11/29 10:09:11;;;;;;;5.13;2.00;;;4.80;90.60;;;;;;5135345;27;20023;-34
2023/11/29 10:11:37;;;;;;;4.15;1.67;;;4.80;90.50;;;;;;5134957;27;20057;-31
2023/11/29 10:14:05;;;;;;;5.03;1.92;;;4.80;90.40;;;;;;5135152;27;20027;-37
2023/11/29 10:16:32;;;;;;;5.95;2.50;;;4.80;90.50;;;;;;5135066;27;20034;-33
2023/11/29 10:19:00;;;;;;;4.38;2.30;;;4.80;90.40;;;;;;5134997;27;20022;-33
2023/11/29 10:21:26;;;;;;;3.38;2.00;;;4.90;90.50;;;;;;5134450;27;20015;-32
2023/11/29 10:23:51;;;;;;;5.57;2.25;;;4.90;90.40;;;;;;5134705;27;20045;-35
2023/11/29 10:26:17;;;;;;;3.70;2.20;;;4.90;90.30;;;;;;5134512;27;20015;-32
2023/11/29 10:28:43;;;;;;;4.82;2.05;;;5.00;90.20;;;;;;5134480;27;20083;-32
2023/11/29 10:31:08;;;;;;;4.05;1.95;;;4.90;90.10;;;;;;5133011;27;20133;-33
2023/11/29 10:33:34;;;;;;;5.47;1.83;;;4.90;90.10;;;;;;5134363;27;20020;-33
2023/11/29 10:36:02;;;;;;;2.55;1.85;;;5.00;90.00;;;;;;5134678;27;20015;-32
2023/11/29 10:38:31;;;;;;;3.10;1.83;;;5.00;90.00;;;;;;5134300;27;20007;-32
2023/11/29 10:41:00;;;;;;;4.05;1.80;;;5.00;90.00;;;;;;5134218;27;20012;-32
2023/11/29 10:43:29;;;;;;;3.70;1.90;;;5.00;90.20;;;;;;5134573;27;20263;-33
2023/11/29 10:46:06;;;;;;;3.53;2.00;;;5.10;89.80;;;;;;5134658;27;20158;-33
2023/11/29 10:48:36;;;;;;;4.97;1.90;;;5.10;89.60;;;;;;5133921;27;20023;-32
2023/11/29 10:51:03;;;;;;;2.25;1.80;;;5.10;89.40;;;;;;5134141;27;20106;-32
2023/11/29 10:53:31;;;;;;;4.43;1.85;;;5.10;89.30;;;;;;5134430;27;20310;-31
2023/11/29 10:55:57;;;;;;;4.45;1.80;;;5.10;89.40;;;;;;5134181;27;20094;-31
2023/11/29 10:58:34;;;;;;;2.17;1.65;;;5.20;88.60;;;;;;5133911;27;20019;-32
2023/11/29 11:01:00;;;;;;;2.65;1.60;;;5.20;88.60;;;;;;5132552;27;20020;-32
2023/11/29 11:03:42;;;;;;;2.95;1.80;;;5.10;88.40;;;;;;5133823;27;20028;-32
2023/11/29 11:06:23;;;;;;;6.15;1.60;;;5.10;88.40;;;;;;5132928;27;20412;-31
2023/11/29 11:08:53;;;;;;;3.20;1.73;;;5.10;88.40;;;;;;5133554;27;20164;-32
2023/11/29 11:11:44;;;;;;;2.65;1.65;;;5.10;88.00;;;;;;5133662;27;20219;-32
2023/11/29 11:14:47;;;;;;;4.65;1.60;;;5.10;88.10;;;;;;5133716;27;20019;-32
2023/11/29 11:17:19;;;;;;;4.10;1.48;;;5.00;88.10;;;;;;5130815;27;20047;-33
2023/11/29 11:19:46;;;;;;;2.33;1.50;;;5.00;88.10;;;;;;5133595;27;20023;-33
2023/11/29 11:22:22;;;;;;;3.72;1.42;;;5.00;88.10;;;;;;5133858;27;20459;-33
2023/11/29 11:24:56;;;;;;;2.20;1.27;;;5.00;88.00;;;;;;5133662;27;20102;-33
2023/11/29 11:27:35;;;;;;;2.67;1.70;;;5.00;88.00;;;;;;5133678;27;20542;-32
2023/11/29 11:30:19;;;;;;;2.13;1.80;;;5.10;88.60;;;;;;5133248;27;20351;-32
2023/11/29 11:32:49;;;;;;;5.38;1.45;;;5.20;87.70;;;;;;5133364;27;20027;-33
2023/11/29 11:35:21;;;;;;;1.75;1.40;;;5.20;87.50;;;;;;5133792;27;20381;-35
2023/11/29 11:37:53;;;;;;;1.92;1.33;;;5.20;87.40;;;;;;5131954;27;20478;-31
2023/11/29 11:40:18;;;;;;;3.60;1.50;;;5.20;87.30;;;;;;5133506;27;20467;-32
2023/11/29 11:42:45;;;;;;;5.47;2.25;;;5.30;87.20;;;;;;5133226;27;20106;-32
2023/11/29 11:45:16;;;;;;;2.30;1.50;;;5.30;87.10;;;;;;5133353;27;20110;-32
2023/11/29 11:47:42;;;;;;;3.15;1.60;;;5.40;86.90;;;;;;5133120;27;20030;-30
2023/11/29 11:50:08;;;;;;;3.63;1.60;;;5.40;86.80;;;;;;5133194;27;20075;-31
2023/11/29 11:52:36;;;;;;;5.28;1.80;;;5.40;86.60;;;;;;5132685;27;20023;-32
2023/11/29 11:55:03;;;;;;;2.47;1.55;;;5.40;86.50;;;;;;5132996;27;20047;-31
2023/11/29 11:57:30;;;;;;;3.92;1.70;;;5.50;86.60;;;;;;5132712;27;20049;-32
2023/11/29 11:59:56;;;;;;;2.60;1.40;;;5.50;86.30;;;;;;5132685;27;20019;-31
2023/11/29 12:02:22;;;;;;;4.40;1.70;;;5.60;86.30;;;;;;5133055;27;20024;-31
2023/11/29 12:04:48;;;;;;;3.25;1.60;;;5.60;86.10;;;;;;5132866;27;20042;-31
2023/11/29 12:07:14;;;;;;;3.88;1.52;;;5.60;85.60;;;;;;5132996;27;20069;-32
2023/11/29 12:09:40;;;;;;;2.63;1.65;;;5.70;85.70;;;;;;5132615;27;20027;-32
2023/11/29 12:12:10;;;;;;;3.03;1.75;;;5.70;85.60;;;;;;5132733;27;20030;-32
2023/11/29 12:14:39;;;;;;;2.28;1.50;;;5.70;85.50;;;;;;5132866;27;20041;-31
2023/11/29 12:17:05;;;;;;;2.55;1.60;;;5.70;85.60;;;;;;5132506;27;20379;-29
2023/11/29 12:19:31;;;;;;;2.67;1.80;;;5.70;85.60;;;;;;5132790;27;20021;-30
2023/11/29 12:21:58;;;;;;;4.90;1.88;;;5.70;85.50;;;;;;5132443;27;20395;-31
2023/11/29 12:24:23;;;;;;;3.90;1.80;;;5.70;85.60;;;;;;5133040;27;20016;-32
2023/11/29 12:26:54;;;;;;;3.38;2.10;;;5.70;85.50;;;;;;5132681;27;20023;-34
2023/11/29 12:29:20;;;;;;;3.22;2.00;;;5.70;85.40;;;;;;5132690;27;20023;-31
2023/11/29 12:31:48;;;;;;;3.88;1.95;;;5.70;85.40;;;;;;5132258;27;20491;-31
2023/11/29 12:34:14;;;;;;;5.25;2.72;;;5.90;85.40;;;;;;5132571;27;20027;-33
2023/11/29 12:36:45;;;;;;;3.95;2.22;;;5.90;85.40;;;;;;5132684;27;20079;-30
2023/11/29 12:39:10;;;;;;;3.65;2.28;;;6.00;85.30;;;;;;5132688;27;20504;-32
2023/11/29 12:41:36;;;;;;;3.08;2.08;;;6.00;85.10;;;;;;5132410;27;20046;-32
2023/11/29 12:44:02;;;;;;;3.72;2.10;;;6.10;85.10;;;;;;5132638;27;20018;-32
2023/11/29 12:46:28;;;;;;;6.82;2.00;;;6.10;85.10;;;;;;5132417;27;20410;-32
2023/11/29 12:48:54;;;;;;;2.72;2.10;;;6.20;85.20;;;;;;5132340;27;20102;-31
2023/11/29 12:51:19;;;;;;;6.05;2.00;;;6.20;85.00;;;;;;5132127;27;20479;-31
2023/11/29 12:53:45;;;;;;;5.55;2.00;;;6.20;85.00;;;;;;5132288;27;20080;-32
2023/11/29 12:56:10;;;;;;;5.07;2.80;;;6.20;84.70;;;;;;5132021;27;20084;-31